sensor_id;sensor_type;location;lat;lon;timestamp;P1;durP1;ratioP1;P2;durP2;ratioP2
17866;SDS011;9059;49.934;8.650;2022-07-26T00:00:41;3.80;;;1.50;;
17866;SDS011;9059;49.934;8.650;2022-07-26T00:01:42;4.20;;;1.63;;
17866;SDS011;9059;49.934;8.650;2022-07-26T00:02:44;11.20;;;2.13;;
17866;SDS011;9059;49.934;8.650;2022-07-26T00:03:45;9.45;;;1.65;;
17866;SDS011;9059;49.934;8.650;2022-07-26T00:04:47;5.07;;;1.42;;
17866;SDS011;9059;49.934;8.650;2022-07-26T00:05:48;3.33;;;1.50;;
17866;SDS011;9059;49.934;8.650;2022-07-26T00:06:50;5.55;;;1.85;;
17866;SDS011;9059;49.934;8.650;2022-07-26T00:07:51;4.55;;;1.60;;
17866;SDS011;9059;49.934;8.650;2022-07-26T00:09:09;2.90;;;1.40;;
17866;SDS011;9059;49.934;8.650;2022-07-26T00:10:11;3.00;;;1.27;;
17866;SDS011;9059;49.934;8.650;2022-07-26T00:11:12;5.57;;;1.50;;
17866;SDS011;9059;49.934;8.650;2022-07-26T00:12:14;5.78;;;1.60;;
17866;SDS011;9059;49.934;8.650;2022-07-26T00:13:15;2.95;;;1.33;;
17866;SDS011;9059;49.934;8.650;2022-07-26T00:14:19;3.38;;;1.30;;
17866;SDS011;9059;49.934;8.650;2022-07-26T00:15:19;5.03;;;1.67;;
17866;SDS011;9059;49.934;8.650;2022-07-26T00:16:21;2.83;;;1.38;;
17866;SDS011;9059;49.934;8.650;2022-07-26T00:17:22;4.47;;;1.77;;
17866;SDS011;9059;49.934;8.650;2022-07-26T00:18:24;6.57;;;1.63;;
17866;SDS011;9059;49.934;8.650;2022-07-26T00:19:25;4.90;;;1.80;;
17866;SDS011;9059;49.934;8.650;2022-07-26T00:20:27;4.13;;;1.90;;
17866;SDS011;9059;49.934;8.650;2022-07-26T00:21:27;3.60;;;1.58;;
17866;SDS011;9059;49.934;8.650;2022-07-26T00:22:30;3.72;;;1.67;;
17866;SDS011;9059;49.934;8.650;2022-07-26T00:23:33;3.67;;;1.40;;
17866;SDS011;9059;49.934;8.650;2022-07-26T00:24:35;5.55;;;1.58;;
17866;SDS011;9059;49.934;8.650;2022-07-26T00:25:36;6.43;;;1.60;;
17866;SDS011;9059;49.934;8.650;2022-07-26T00:26:38;4.75;;;1.60;;
17866;SDS011;9059;49.934;8.650;2022-07-26T00:27:39;5.22;;;1.65;;
17866;SDS011;9059;49.934;8.650;2022-07-26T00:28:40;6.88;;;1.42;;
17866;SDS011;9059;49.934;8.650;2022-07-26T00:29:43;4.85;;;1.50;;
17866;SDS011;9059;49.934;8.650;2022-07-26T00:30:44;5.80;;;1.52;;
17866;SDS011;9059;49.934;8.650;2022-07-26T00:31:45;2.85;;;1.50;;
17866;SDS011;9059;49.934;8.650;2022-07-26T00:32:47;8.07;;;1.63;;
17866;SDS011;9059;49.934;8.650;2022-07-26T00:33:48;5.25;;;1.73;;
17866;SDS011;9059;49.934;8.650;2022-07-26T00:34:50;5.03;;;1.55;;
17866;SDS011;9059;49.934;8.650;2022-07-26T00:35:50;7.55;;;1.80;;
17866;SDS011;9059;49.934;8.650;2022-07-26T00:36:52;4.10;;;1.65;;
17866;SDS011;9059;49.934;8.650;2022-07-26T00:37:53;5.75;;;1.80;;
17866;SDS011;9059;49.934;8.650;2022-07-26T00:38:55;6.32;;;1.50;;
17866;SDS011;9059;49.934;8.650;2022-07-26T00:39:56;2.30;;;1.60;;
17866;SDS011;9059;49.934;8.650;2022-07-26T00:40:57;3.03;;;1.42;;
17866;SDS011;9059;49.934;8.650;2022-07-26T00:41:58;3.33;;;1.55;;
17866;SDS011;9059;49.934;8.650;2022-07-26T00:43:00;2.78;;;1.40;;
17866;SDS011;9059;49.934;8.650;2022-07-26T00:44:01;4.57;;;1.60;;
17866;SDS011;9059;49.934;8.650;2022-07-26T00:45:05;6.32;;;1.60;;
17866;SDS011;9059;49.934;8.650;2022-07-26T00:46:07;3.80;;;1.63;;
17866;SDS011;9059;49.934;8.650;2022-07-26T00:47:09;6.88;;;1.95;;
17866;SDS011;9059;49.934;8.650;2022-07-26T00:48:10;8.10;;;1.80;;
17866;SDS011;9059;49.934;8.650;2022-07-26T00:49:11;4.40;;;1.70;;
17866;SDS011;9059;49.934;8.650;2022-07-26T00:50:13;2.97;;;1.60;;
17866;SDS011;9059;49.934;8.650;2022-07-26T00:51:17;5.38;;;1.42;;
17866;SDS011;9059;49.934;8.650;2022-07-26T00:52:18;5.95;;;1.90;;
17866;SDS011;9059;49.934;8.650;2022-07-26T00:53:20;3.92;;;1.83;;
17866;SDS011;9059;49.934;8.650;2022-07-26T00:54:21;7.10;;;1.90;;
17866;SDS011;9059;49.934;8.650;2022-07-26T00:55:23;6.07;;;1.60;;
17866;SDS011;9059;49.934;8.650;2022-07-26T00:56:24;6.85;;;1.90;;
17866;SDS011;9059;49.934;8.650;2022-07-26T00:57:26;2.05;;;1.33;;
17866;SDS011;9059;49.934;8.650;2022-07-26T00:58:28;6.07;;;2.42;;
17866;SDS011;9059;49.934;8.650;2022-07-26T00:59:30;2.50;;;1.52;;
17866;SDS011;9059;49.934;8.650;2022-07-26T01:00:32;3.90;;;1.70;;
17866;SDS011;9059;49.934;8.650;2022-07-26T01:01:34;6.55;;;1.60;;
17866;SDS011;9059;49.934;8.650;2022-07-26T01:02:34;8.60;;;1.80;;
17866;SDS011;9059;49.934;8.650;2022-07-26T01:03:36;2.15;;;1.27;;
17866;SDS011;9059;49.934;8.650;2022-07-26T01:04:37;4.20;;;1.52;;
17866;SDS011;9059;49.934;8.650;2022-07-26T01:05:39;4.70;;;1.73;;
17866;SDS011;9059;49.934;8.650;2022-07-26T01:06:40;2.88;;;1.55;;
17866;SDS011;9059;49.934;8.650;2022-07-26T01:07:42;6.57;;;1.73;;
17866;SDS011;9059;49.934;8.650;2022-07-26T01:08:44;9.20;;;1.67;;
17866;SDS011;9059;49.934;8.650;2022-07-26T01:09:45;4.60;;;1.75;;
17866;SDS011;9059;49.934;8.650;2022-07-26T01:10:46;4.38;;;1.40;;
17866;SDS011;9059;49.934;8.650;2022-07-26T01:11:48;4.43;;;1.45;;
17866;SDS011;9059;49.934;8.650;2022-07-26T01:12:50;3.42;;;1.45;;
17866;SDS011;9059;49.934;8.650;2022-07-26T01:13:51;6.97;;;1.70;;
17866;SDS011;9059;49.934;8.650;2022-07-26T01:14:52;5.75;;;1.58;;
17866;SDS011;9059;49.934;8.650;2022-07-26T01:15:55;6.80;;;1.80;;
17866;SDS011;9059;49.934;8.650;2022-07-26T01:16:56;5.03;;;1.52;;
17866;SDS011;9059;49.934;8.650;2022-07-26T01:17:58;3.50;;;1.55;;
17866;SDS011;9059;49.934;8.650;2022-07-26T01:18:58;3.47;;;1.33;;
17866;SDS011;9059;49.934;8.650;2022-07-26T01:20:00;7.53;;;1.77;;
17866;SDS011;9059;49.934;8.650;2022-07-26T01:21:01;7.75;;;1.80;;
17866;SDS011;9059;49.934;8.650;2022-07-26T01:22:05;3.15;;;1.38;;
17866;SDS011;9059;49.934;8.650;2022-07-26T01:23:06;4.95;;;1.48;;
17866;SDS011;9059;49.934;8.650;2022-07-26T01:24:08;7.82;;;1.55;;
17866;SDS011;9059;49.934;8.650;2022-07-26T01:25:09;4.13;;;1.77;;
17866;SDS011;9059;49.934;8.650;2022-07-26T01:26:10;3.58;;;1.33;;
17866;SDS011;9059;49.934;8.650;2022-07-26T01:27:11;3.55;;;1.65;;
17866;SDS011;9059;49.934;8.650;2022-07-26T01:28:13;3.28;;;1.40;;
17866;SDS011;9059;49.934;8.650;2022-07-26T01:29:14;3.10;;;1.50;;
17866;SDS011;9059;49.934;8.650;2022-07-26T01:30:16;7.57;;;1.63;;
17866;SDS011;9059;49.934;8.650;2022-07-26T01:31:17;3.95;;;1.60;;
17866;SDS011;9059;49.934;8.650;2022-07-26T01:32:18;3.83;;;1.92;;
17866;SDS011;9059;49.934;8.650;2022-07-26T01:33:19;2.85;;;1.63;;
17866;SDS011;9059;49.934;8.650;2022-07-26T01:34:27;2.63;;;1.52;;
17866;SDS011;9059;49.934;8.650;2022-07-26T01:35:27;4.90;;;1.90;;
17866;SDS011;9059;49.934;8.650;2022-07-26T01:36:29;2.97;;;1.40;;
17866;SDS011;9059;49.934;8.650;2022-07-26T01:37:31;8.80;;;1.90;;
17866;SDS011;9059;49.934;8.650;2022-07-26T01:38:33;5.55;;;1.75;;
17866;SDS011;9059;49.934;8.650;2022-07-26T01:39:34;4.72;;;1.88;;
17866;SDS011;9059;49.934;8.650;2022-07-26T01:40:36;3.83;;;1.65;;
17866;SDS011;9059;49.934;8.650;2022-07-26T01:41:36;5.90;;;2.15;;
17866;SDS011;9059;49.934;8.650;2022-07-26T01:42:38;4.80;;;1.67;;
17866;SDS011;9059;49.934;8.650;2022-07-26T01:43:40;4.35;;;1.50;;
17866;SDS011;9059;49.934;8.650;2022-07-26T01:44:41;9.90;;;2.00;;
17866;SDS011;9059;49.934;8.650;2022-07-26T01:45:42;5.38;;;1.52;;
17866;SDS011;9059;49.934;8.650;2022-07-26T01:46:44;6.65;;;2.00;;
17866;SDS011;9059;49.934;8.650;2022-07-26T01:47:45;9.02;;;1.85;;
17866;SDS011;9059;49.934;8.650;2022-07-26T01:48:49;6.80;;;2.00;;
17866;SDS011;9059;49.934;8.650;2022-07-26T01:49:50;8.25;;;1.60;;
17866;SDS011;9059;49.934;8.650;2022-07-26T01:50:52;7.80;;;1.65;;
17866;SDS011;9059;49.934;8.650;2022-07-26T01:51:53;11.65;;;1.92;;
17866;SDS011;9059;49.934;8.650;2022-07-26T01:52:56;8.38;;;1.80;;
17866;SDS011;9059;49.934;8.650;2022-07-26T01:53:56;3.00;;;1.70;;
17866;SDS011;9059;49.934;8.650;2022-07-26T01:54:58;4.60;;;1.77;;
17866;SDS011;9059;49.934;8.650;2022-07-26T01:55:59;6.93;;;1.60;;
17866;SDS011;9059;49.934;8.650;2022-07-26T01:57:01;4.35;;;1.40;;
17866;SDS011;9059;49.934;8.650;2022-07-26T01:58:02;3.72;;;1.65;;
17866;SDS011;9059;49.934;8.650;2022-07-26T01:59:04;2.53;;;1.60;;
17866;SDS011;9059;49.934;8.650;2022-07-26T02:00:05;4.25;;;1.60;;
17866;SDS011;9059;49.934;8.650;2022-07-26T02:01:10;3.72;;;1.73;;
17866;SDS011;9059;49.934;8.650;2022-07-26T02:02:11;4.95;;;1.60;;
17866;SDS011;9059;49.934;8.650;2022-07-26T02:03:13;5.70;;;1.40;;
17866;SDS011;9059;49.934;8.650;2022-07-26T02:04:14;5.63;;;1.60;;
17866;SDS011;9059;49.934;8.650;2022-07-26T02:05:29;4.32;;;1.90;;
17866;SDS011;9059;49.934;8.650;2022-07-26T02:06:31;5.70;;;2.10;;
17866;SDS011;9059;49.934;8.650;2022-07-26T02:07:36;3.63;;;1.67;;
17866;SDS011;9059;49.934;8.650;2022-07-26T02:08:42;6.65;;;1.63;;
17866;SDS011;9059;49.934;8.650;2022-07-26T02:09:42;7.72;;;1.63;;
17866;SDS011;9059;49.934;8.650;2022-07-26T02:10:44;4.75;;;1.60;;
17866;SDS011;9059;49.934;8.650;2022-07-26T02:12:00;5.90;;;1.67;;
17866;SDS011;9059;49.934;8.650;2022-07-26T02:13:02;4.25;;;1.60;;
17866;SDS011;9059;49.934;8.650;2022-07-26T02:14:03;3.88;;;1.45;;
17866;SDS011;9059;49.934;8.650;2022-07-26T02:15:05;7.13;;;1.60;;
17866;SDS011;9059;49.934;8.650;2022-07-26T02:16:07;6.07;;;1.60;;
17866;SDS011;9059;49.934;8.650;2022-07-26T02:17:10;3.63;;;1.60;;
17866;SDS011;9059;49.934;8.650;2022-07-26T02:18:11;5.13;;;1.75;;
17866;SDS011;9059;49.934;8.650;2022-07-26T02:19:13;3.72;;;1.50;;
17866;SDS011;9059;49.934;8.650;2022-07-26T02:20:14;5.78;;;1.85;;
17866;SDS011;9059;49.934;8.650;2022-07-26T02:21:16;8.25;;;1.60;;
17866;SDS011;9059;49.934;8.650;2022-07-26T02:22:17;5.35;;;1.75;;
17866;SDS011;9059;49.934;8.650;2022-07-26T02:23:20;22.00;;;1.90;;
17866;SDS011;9059;49.934;8.650;2022-07-26T02:24:22;3.63;;;1.63;;
17866;SDS011;9059;49.934;8.650;2022-07-26T02:25:26;3.10;;;1.52;;
17866;SDS011;9059;49.934;8.650;2022-07-26T02:26:27;4.55;;;1.98;;
17866;SDS011;9059;49.934;8.650;2022-07-26T02:27:29;4.78;;;1.40;;
17866;SDS011;9059;49.934;8.650;2022-07-26T02:28:29;3.55;;;1.50;;
17866;SDS011;9059;49.934;8.650;2022-07-26T02:29:31;3.90;;;1.42;;
17866;SDS011;9059;49.934;8.650;2022-07-26T02:30:32;16.90;;;1.80;;
17866;SDS011;9059;49.934;8.650;2022-07-26T02:31:34;3.33;;;1.58;;
17866;SDS011;9059;49.934;8.650;2022-07-26T02:32:34;2.85;;;1.40;;
17866;SDS011;9059;49.934;8.650;2022-07-26T02:33:36;3.78;;;1.70;;
17866;SDS011;9059;49.934;8.650;2022-07-26T02:34:37;3.10;;;1.42;;
17866;SDS011;9059;49.934;8.650;2022-07-26T02:35:38;3.60;;;1.50;;
17866;SDS011;9059;49.934;8.650;2022-07-26T02:36:39;3.33;;;1.50;;
17866;SDS011;9059;49.934;8.650;2022-07-26T02:37:41;3.58;;;1.65;;
17866;SDS011;9059;49.934;8.650;2022-07-26T02:38:42;3.60;;;1.08;;
17866;SDS011;9059;49.934;8.650;2022-07-26T02:39:45;4.90;;;1.38;;
17866;SDS011;9059;49.934;8.650;2022-07-26T02:40:45;3.28;;;1.40;;
17866;SDS011;9059;49.934;8.650;2022-07-26T02:41:49;6.03;;;1.60;;
17866;SDS011;9059;49.934;8.650;2022-07-26T02:42:50;3.67;;;1.52;;
17866;SDS011;9059;49.934;8.650;2022-07-26T02:43:51;2.90;;;1.50;;
17866;SDS011;9059;49.934;8.650;2022-07-26T02:44:52;3.58;;;1.45;;
17866;SDS011;9059;49.934;8.650;2022-07-26T02:45:54;6.40;;;1.70;;
17866;SDS011;9059;49.934;8.650;2022-07-26T02:46:55;4.07;;;1.80;;
17866;SDS011;9059;49.934;8.650;2022-07-26T02:47:56;5.13;;;1.30;;
17866;SDS011;9059;49.934;8.650;2022-07-26T02:48:57;8.07;;;1.75;;
17866;SDS011;9059;49.934;8.650;2022-07-26T02:49:59;2.60;;;1.50;;
17866;SDS011;9059;49.934;8.650;2022-07-26T02:51:00;5.95;;;1.40;;
17866;SDS011;9059;49.934;8.650;2022-07-26T02:52:02;3.47;;;1.40;;
17866;SDS011;9059;49.934;8.650;2022-07-26T02:53:03;8.10;;;1.40;;
17866;SDS011;9059;49.934;8.650;2022-07-26T02:54:05;4.68;;;1.35;;
17866;SDS011;9059;49.934;8.650;2022-07-26T02:55:08;5.03;;;1.50;;
17866;SDS011;9059;49.934;8.650;2022-07-26T02:56:10;4.13;;;1.67;;
17866;SDS011;9059;49.934;8.650;2022-07-26T02:57:11;4.97;;;1.50;;
17866;SDS011;9059;49.934;8.650;2022-07-26T02:58:13;4.70;;;1.50;;
17866;SDS011;9059;49.934;8.650;2022-07-26T02:59:14;7.95;;;1.33;;
17866;SDS011;9059;49.934;8.650;2022-07-26T03:00:17;4.38;;;1.50;;
17866;SDS011;9059;49.934;8.650;2022-07-26T03:01:18;4.68;;;1.92;;
17866;SDS011;9059;49.934;8.650;2022-07-26T03:02:20;4.90;;;1.50;;
17866;SDS011;9059;49.934;8.650;2022-07-26T03:03:21;2.42;;;1.50;;
17866;SDS011;9059;49.934;8.650;2022-07-26T03:04:23;4.97;;;1.52;;
17866;SDS011;9059;49.934;8.650;2022-07-26T03:05:24;4.43;;;1.60;;
17866;SDS011;9059;49.934;8.650;2022-07-26T03:06:25;3.33;;;1.40;;
17866;SDS011;9059;49.934;8.650;2022-07-26T03:07:26;3.90;;;1.70;;
17866;SDS011;9059;49.934;8.650;2022-07-26T03:08:28;8.55;;;1.90;;
17866;SDS011;9059;49.934;8.650;2022-07-26T03:09:30;5.15;;;1.50;;
17866;SDS011;9059;49.934;8.650;2022-07-26T03:10:32;4.25;;;1.52;;
17866;SDS011;9059;49.934;8.650;2022-07-26T03:11:37;3.17;;;1.52;;
17866;SDS011;9059;49.934;8.650;2022-07-26T03:12:37;6.15;;;1.60;;
17866;SDS011;9059;49.934;8.650;2022-07-26T03:13:39;7.63;;;1.80;;
17866;SDS011;9059;49.934;8.650;2022-07-26T03:14:40;7.93;;;1.60;;
17866;SDS011;9059;49.934;8.650;2022-07-26T03:15:42;3.30;;;1.45;;
17866;SDS011;9059;49.934;8.650;2022-07-26T03:16:42;4.28;;;1.80;;
17866;SDS011;9059;49.934;8.650;2022-07-26T03:17:44;6.32;;;1.70;;
17866;SDS011;9059;49.934;8.650;2022-07-26T03:18:45;2.78;;;1.67;;
17866;SDS011;9059;49.934;8.650;2022-07-26T03:19:46;3.47;;;1.70;;
17866;SDS011;9059;49.934;8.650;2022-07-26T03:20:47;3.55;;;1.60;;
17866;SDS011;9059;49.934;8.650;2022-07-26T03:21:49;8.32;;;2.00;;
17866;SDS011;9059;49.934;8.650;2022-07-26T03:22:49;3.38;;;1.65;;
17866;SDS011;9059;49.934;8.650;2022-07-26T03:23:51;2.95;;;1.77;;
17866;SDS011;9059;49.934;8.650;2022-07-26T03:24:52;2.47;;;1.60;;
17866;SDS011;9059;49.934;8.650;2022-07-26T03:25:55;4.95;;;1.77;;
17866;SDS011;9059;49.934;8.650;2022-07-26T03:26:56;2.85;;;1.55;;
17866;SDS011;9059;49.934;8.650;2022-07-26T03:27:58;3.67;;;1.58;;
17866;SDS011;9059;49.934;8.650;2022-07-26T03:28:58;5.97;;;1.42;;
17866;SDS011;9059;49.934;8.650;2022-07-26T03:30:00;2.30;;;1.50;;
17866;SDS011;9059;49.934;8.650;2022-07-26T03:31:01;3.78;;;1.65;;
17866;SDS011;9059;49.934;8.650;2022-07-26T03:32:03;5.32;;;1.60;;
17866;SDS011;9059;49.934;8.650;2022-07-26T03:33:04;4.00;;;1.58;;
17866;SDS011;9059;49.934;8.650;2022-07-26T03:34:08;5.13;;;1.60;;
17866;SDS011;9059;49.934;8.650;2022-07-26T03:35:09;2.08;;;1.33;;
17866;SDS011;9059;49.934;8.650;2022-07-26T03:36:11;4.20;;;1.50;;
17866;SDS011;9059;49.934;8.650;2022-07-26T03:37:12;2.08;;;1.52;;
17866;SDS011;9059;49.934;8.650;2022-07-26T03:38:13;3.60;;;1.60;;
17866;SDS011;9059;49.934;8.650;2022-07-26T03:39:15;9.02;;;1.75;;
17866;SDS011;9059;49.934;8.650;2022-07-26T03:40:16;5.95;;;1.60;;
17866;SDS011;9059;49.934;8.650;2022-07-26T03:41:19;2.10;;;1.48;;
17866;SDS011;9059;49.934;8.650;2022-07-26T03:42:20;3.35;;;1.48;;
17866;SDS011;9059;49.934;8.650;2022-07-26T03:43:22;3.63;;;1.67;;
17866;SDS011;9059;49.934;8.650;2022-07-26T03:44:23;6.95;;;1.70;;
17866;SDS011;9059;49.934;8.650;2022-07-26T03:45:24;4.53;;;1.65;;
17866;SDS011;9059;49.934;8.650;2022-07-26T03:46:25;3.22;;;1.42;;
17866;SDS011;9059;49.934;8.650;2022-07-26T03:47:27;4.05;;;1.60;;
17866;SDS011;9059;49.934;8.650;2022-07-26T03:48:28;2.72;;;1.60;;
17866;SDS011;9059;49.934;8.650;2022-07-26T03:49:30;3.90;;;1.80;;
17866;SDS011;9059;49.934;8.650;2022-07-26T03:50:31;4.28;;;1.63;;
17866;SDS011;9059;49.934;8.650;2022-07-26T03:51:33;4.95;;;1.52;;
17866;SDS011;9059;49.934;8.650;2022-07-26T03:52:33;6.88;;;1.58;;
17866;SDS011;9059;49.934;8.650;2022-07-26T03:53:35;3.72;;;1.63;;
17866;SDS011;9059;49.934;8.650;2022-07-26T03:54:36;2.20;;;1.50;;
17866;SDS011;9059;49.934;8.650;2022-07-26T03:55:38;4.55;;;1.65;;
17866;SDS011;9059;49.934;8.650;2022-07-26T03:56:58;6.75;;;1.40;;
17866;SDS011;9059;49.934;8.650;2022-07-26T03:57:59;6.32;;;1.63;;
17866;SDS011;9059;49.934;8.650;2022-07-26T03:59:00;6.07;;;1.60;;
17866;SDS011;9059;49.934;8.650;2022-07-26T04:00:04;6.15;;;1.83;;
17866;SDS011;9059;49.934;8.650;2022-07-26T04:01:07;11.75;;;1.63;;
17866;SDS011;9059;49.934;8.650;2022-07-26T04:02:09;5.22;;;1.70;;
17866;SDS011;9059;49.934;8.650;2022-07-26T04:03:10;8.75;;;1.90;;
17866;SDS011;9059;49.934;8.650;2022-07-26T04:04:12;3.05;;;1.60;;
17866;SDS011;9059;49.934;8.650;2022-07-26T04:05:15;6.72;;;1.73;;
17866;SDS011;9059;49.934;8.650;2022-07-26T04:06:15;4.38;;;1.63;;
17866;SDS011;9059;49.934;8.650;2022-07-26T04:07:17;2.95;;;1.60;;
17866;SDS011;9059;49.934;8.650;2022-07-26T04:08:18;5.38;;;1.45;;
17866;SDS011;9059;49.934;8.650;2022-07-26T04:09:20;4.75;;;1.50;;
17866;SDS011;9059;49.934;8.650;2022-07-26T04:10:20;3.75;;;1.60;;
17866;SDS011;9059;49.934;8.650;2022-07-26T04:11:23;6.22;;;1.60;;
17866;SDS011;9059;49.934;8.650;2022-07-26T04:12:25;2.85;;;1.60;;
17866;SDS011;9059;49.934;8.650;2022-07-26T04:13:26;3.08;;;1.73;;
17866;SDS011;9059;49.934;8.650;2022-07-26T04:14:27;6.95;;;1.40;;
17866;SDS011;9059;49.934;8.650;2022-07-26T04:15:29;2.20;;;1.30;;
17866;SDS011;9059;49.934;8.650;2022-07-26T04:16:29;10.98;;;1.73;;
17866;SDS011;9059;49.934;8.650;2022-07-26T04:17:35;7.47;;;1.50;;
17866;SDS011;9059;49.934;8.650;2022-07-26T04:18:36;3.95;;;1.50;;
17866;SDS011;9059;49.934;8.650;2022-07-26T04:19:38;5.97;;;1.17;;
17866;SDS011;9059;49.934;8.650;2022-07-26T04:20:40;9.52;;;1.50;;
17866;SDS011;9059;49.934;8.650;2022-07-26T04:21:41;5.93;;;1.52;;
17866;SDS011;9059;49.934;8.650;2022-07-26T04:22:42;3.28;;;1.50;;
17866;SDS011;9059;49.934;8.650;2022-07-26T04:23:44;10.77;;;1.77;;
17866;SDS011;9059;49.934;8.650;2022-07-26T04:24:46;4.10;;;1.42;;
17866;SDS011;9059;49.934;8.650;2022-07-26T04:25:46;3.80;;;1.60;;
17866;SDS011;9059;49.934;8.650;2022-07-26T04:26:48;4.13;;;1.40;;
17866;SDS011;9059;49.934;8.650;2022-07-26T04:27:50;5.03;;;1.40;;
17866;SDS011;9059;49.934;8.650;2022-07-26T04:28:52;7.40;;;1.40;;
17866;SDS011;9059;49.934;8.650;2022-07-26T04:29:53;7.63;;;1.45;;
17866;SDS011;9059;49.934;8.650;2022-07-26T04:30:54;9.23;;;1.40;;
17866;SDS011;9059;49.934;8.650;2022-07-26T04:31:55;10.90;;;1.40;;
17866;SDS011;9059;49.934;8.650;2022-07-26T04:32:57;6.28;;;1.50;;
17866;SDS011;9059;49.934;8.650;2022-07-26T04:33:57;3.50;;;1.40;;
17866;SDS011;9059;49.934;8.650;2022-07-26T04:34:59;3.00;;;1.48;;
17866;SDS011;9059;49.934;8.650;2022-07-26T04:36:00;3.25;;;1.40;;
17866;SDS011;9059;49.934;8.650;2022-07-26T04:37:02;2.75;;;1.33;;
17866;SDS011;9059;49.934;8.650;2022-07-26T04:38:03;4.53;;;1.40;;
17866;SDS011;9059;49.934;8.650;2022-07-26T04:39:04;8.70;;;1.67;;
17866;SDS011;9059;49.934;8.650;2022-07-26T04:40:06;2.65;;;1.20;;
17866;SDS011;9059;49.934;8.650;2022-07-26T04:41:08;3.95;;;1.30;;
17866;SDS011;9059;49.934;8.650;2022-07-26T04:42:10;6.60;;;1.20;;
17866;SDS011;9059;49.934;8.650;2022-07-26T04:43:12;4.45;;;1.10;;
17866;SDS011;9059;49.934;8.650;2022-07-26T04:44:14;3.53;;;1.10;;
17866;SDS011;9059;49.934;8.650;2022-07-26T04:45:15;4.03;;;1.25;;
17866;SDS011;9059;49.934;8.650;2022-07-26T04:46:16;2.95;;;1.20;;
17866;SDS011;9059;49.934;8.650;2022-07-26T04:47:18;2.42;;;1.08;;
17866;SDS011;9059;49.934;8.650;2022-07-26T04:48:20;2.22;;;1.20;;
17866;SDS011;9059;49.934;8.650;2022-07-26T04:49:21;3.67;;;1.42;;
17866;SDS011;9059;49.934;8.650;2022-07-26T04:50:23;3.47;;;0.98;;
17866;SDS011;9059;49.934;8.650;2022-07-26T04:51:27;3.13;;;1.20;;
17866;SDS011;9059;49.934;8.650;2022-07-26T04:52:27;2.63;;;1.20;;
17866;SDS011;9059;49.934;8.650;2022-07-26T04:53:29;3.00;;;1.30;;
17866;SDS011;9059;49.934;8.650;2022-07-26T04:54:30;5.18;;;1.45;;
17866;SDS011;9059;49.934;8.650;2022-07-26T04:55:32;3.22;;;1.35;;
17866;SDS011;9059;49.934;8.650;2022-07-26T04:56:32;2.78;;;1.08;;
17866;SDS011;9059;49.934;8.650;2022-07-26T04:57:34;2.72;;;1.20;;
17866;SDS011;9059;49.934;8.650;2022-07-26T04:58:36;5.45;;;1.30;;
17866;SDS011;9059;49.934;8.650;2022-07-26T04:59:38;6.95;;;1.30;;
17866;SDS011;9059;49.934;8.650;2022-07-26T05:00:39;5.07;;;1.30;;
17866;SDS011;9059;49.934;8.650;2022-07-26T05:01:41;4.50;;;1.25;;
17866;SDS011;9059;49.934;8.650;2022-07-26T05:02:41;2.47;;;1.05;;
17866;SDS011;9059;49.934;8.650;2022-07-26T05:03:43;3.40;;;1.25;;
17866;SDS011;9059;49.934;8.650;2022-07-26T05:04:45;3.60;;;1.10;;
17866;SDS011;9059;49.934;8.650;2022-07-26T05:05:45;3.85;;;0.88;;
17866;SDS011;9059;49.934;8.650;2022-07-26T05:06:47;4.50;;;1.20;;
17866;SDS011;9059;49.934;8.650;2022-07-26T05:07:49;4.35;;;1.23;;
17866;SDS011;9059;49.934;8.650;2022-07-26T05:08:53;4.68;;;1.17;;
17866;SDS011;9059;49.934;8.650;2022-07-26T05:09:53;1.77;;;1.00;;
17866;SDS011;9059;49.934;8.650;2022-07-26T05:10:55;8.07;;;1.00;;
17866;SDS011;9059;49.934;8.650;2022-07-26T05:11:56;3.08;;;0.98;;
17866;SDS011;9059;49.934;8.650;2022-07-26T05:12:58;2.80;;;1.13;;
17866;SDS011;9059;49.934;8.650;2022-07-26T05:14:00;4.03;;;1.60;;
17866;SDS011;9059;49.934;8.650;2022-07-26T05:15:02;5.35;;;0.95;;
17866;SDS011;9059;49.934;8.650;2022-07-26T05:16:03;4.18;;;1.13;;
17866;SDS011;9059;49.934;8.650;2022-07-26T05:17:05;6.07;;;1.17;;
17866;SDS011;9059;49.934;8.650;2022-07-26T05:18:07;4.45;;;1.20;;
17866;SDS011;9059;49.934;8.650;2022-07-26T05:19:09;1.20;;;0.75;;
17866;SDS011;9059;49.934;8.650;2022-07-26T05:20:12;3.58;;;0.95;;
17866;SDS011;9059;49.934;8.650;2022-07-26T05:21:15;4.55;;;1.05;;
17866;SDS011;9059;49.934;8.650;2022-07-26T05:22:17;3.10;;;0.90;;
17866;SDS011;9059;49.934;8.650;2022-07-26T05:23:19;2.97;;;0.98;;
17866;SDS011;9059;49.934;8.650;2022-07-26T05:24:19;2.58;;;0.73;;
17866;SDS011;9059;49.934;8.650;2022-07-26T05:25:21;3.63;;;1.13;;
17866;SDS011;9059;49.934;8.650;2022-07-26T05:26:22;5.55;;;0.90;;
17866;SDS011;9059;49.934;8.650;2022-07-26T05:27:23;3.42;;;1.17;;
17866;SDS011;9059;49.934;8.650;2022-07-26T05:28:24;11.80;;;1.10;;
17866;SDS011;9059;49.934;8.650;2022-07-26T05:29:27;3.70;;;1.23;;
17866;SDS011;9059;49.934;8.650;2022-07-26T05:30:28;3.97;;;1.15;;
17866;SDS011;9059;49.934;8.650;2022-07-26T05:31:30;2.15;;;0.90;;
17866;SDS011;9059;49.934;8.650;2022-07-26T05:32:31;1.80;;;0.80;;
17866;SDS011;9059;49.934;8.650;2022-07-26T05:33:32;3.80;;;0.85;;
17866;SDS011;9059;49.934;8.650;2022-07-26T05:34:33;2.90;;;0.95;;
17866;SDS011;9059;49.934;8.650;2022-07-26T05:35:35;4.47;;;0.98;;
17866;SDS011;9059;49.934;8.650;2022-07-26T05:36:35;2.13;;;1.05;;
17866;SDS011;9059;49.934;8.650;2022-07-26T05:37:37;2.88;;;0.95;;
17866;SDS011;9059;49.934;8.650;2022-07-26T05:38:38;3.92;;;0.80;;
17866;SDS011;9059;49.934;8.650;2022-07-26T05:39:40;3.15;;;1.00;;
17866;SDS011;9059;49.934;8.650;2022-07-26T05:40:40;1.63;;;0.82;;
17866;SDS011;9059;49.934;8.650;2022-07-26T05:41:42;4.32;;;0.82;;
17866;SDS011;9059;49.934;8.650;2022-07-26T05:42:43;3.72;;;1.10;;
17866;SDS011;9059;49.934;8.650;2022-07-26T05:43:45;8.00;;;1.15;;
17866;SDS011;9059;49.934;8.650;2022-07-26T05:44:47;3.00;;;0.85;;
17866;SDS011;9059;49.934;8.650;2022-07-26T05:45:48;1.42;;;0.65;;
17866;SDS011;9059;49.934;8.650;2022-07-26T05:46:49;2.10;;;0.80;;
17866;SDS011;9059;49.934;8.650;2022-07-26T05:47:51;2.33;;;1.00;;
17866;SDS011;9059;49.934;8.650;2022-07-26T05:48:52;8.77;;;1.00;;
17866;SDS011;9059;49.934;8.650;2022-07-26T05:49:54;1.00;;;0.70;;
17866;SDS011;9059;49.934;8.650;2022-07-26T05:50:55;3.15;;;1.10;;
17866;SDS011;9059;49.934;8.650;2022-07-26T05:51:56;4.53;;;1.15;;
17866;SDS011;9059;49.934;8.650;2022-07-26T05:52:57;5.03;;;1.05;;
17866;SDS011;9059;49.934;8.650;2022-07-26T05:53:59;5.70;;;1.13;;
17866;SDS011;9059;49.934;8.650;2022-07-26T05:54:59;0.80;;;0.50;;
17866;SDS011;9059;49.934;8.650;2022-07-26T05:56:01;7.00;;;0.77;;
17866;SDS011;9059;49.934;8.650;2022-07-26T05:57:02;12.55;;;1.20;;
17866;SDS011;9059;49.934;8.650;2022-07-26T05:58:04;3.30;;;0.73;;
17866;SDS011;9059;49.934;8.650;2022-07-26T05:59:05;2.15;;;0.70;;
17866;SDS011;9059;49.934;8.650;2022-07-26T06:00:09;6.25;;;0.57;;
17866;SDS011;9059;49.934;8.650;2022-07-26T06:01:13;6.53;;;0.70;;
17866;SDS011;9059;49.934;8.650;2022-07-26T06:02:14;1.33;;;0.70;;
17866;SDS011;9059;49.934;8.650;2022-07-26T06:03:15;3.55;;;0.82;;
17866;SDS011;9059;49.934;8.650;2022-07-26T06:04:23;3.25;;;0.70;;
17866;SDS011;9059;49.934;8.650;2022-07-26T06:05:24;2.03;;;0.75;;
17866;SDS011;9059;49.934;8.650;2022-07-26T06:06:26;3.85;;;0.70;;
17866;SDS011;9059;49.934;8.650;2022-07-26T06:07:27;2.45;;;1.05;;
17866;SDS011;9059;49.934;8.650;2022-07-26T06:08:28;1.40;;;0.70;;
17866;SDS011;9059;49.934;8.650;2022-07-26T06:09:29;2.58;;;0.95;;
17866;SDS011;9059;49.934;8.650;2022-07-26T06:10:31;2.47;;;0.80;;
17866;SDS011;9059;49.934;8.650;2022-07-26T06:11:32;1.70;;;0.60;;
17866;SDS011;9059;49.934;8.650;2022-07-26T06:12:34;3.05;;;0.85;;
17866;SDS011;9059;49.934;8.650;2022-07-26T06:13:36;3.15;;;0.70;;
17866;SDS011;9059;49.934;8.650;2022-07-26T06:14:36;2.60;;;0.85;;
17866;SDS011;9059;49.934;8.650;2022-07-26T06:15:39;2.20;;;0.80;;
17866;SDS011;9059;49.934;8.650;2022-07-26T06:16:41;1.52;;;0.68;;
17866;SDS011;9059;49.934;8.650;2022-07-26T06:17:43;3.30;;;0.88;;